createdAt,value
2018-11-22T12:18:43.962Z,25.50
2018-11-22T12:21:46.950Z,25.50
2018-11-22T12:24:49.942Z,25.63
2018-11-22T12:27:54.674Z,23.07
2018-11-22T12:30:57.663Z,24.90
2018-11-22T12:34:06.233Z,24.43
2018-11-22T12:37:10.638Z,25.27
2018-11-22T12:40:13.802Z,24.87
2018-11-22T12:43:17.129Z,25.50
2018-11-22T12:46:20.215Z,27.40
2018-11-22T12:49:24.338Z,24.83
2018-11-22T12:52:27.398Z,25.17
2018-11-22T12:55:30.633Z,24.37
2018-11-22T12:58:33.896Z,25.47
2018-11-22T13:01:36.956Z,26.93
2018-11-22T13:04:39.978Z,25.43
2018-11-22T13:07:43.000Z,26.03
2018-11-22T13:10:46.074Z,26.20
2018-11-22T13:13:49.182Z,27.50
2018-11-22T13:16:52.351Z,27.67
2018-11-22T13:19:55.678Z,25.80
2018-11-22T13:22:58.735Z,28.63
2018-11-22T13:26:01.966Z,27.20
2018-11-22T13:29:05.131Z,26.40
2018-11-22T13:32:08.150Z,26.13
2018-11-22T13:35:12.034Z,26.43
2018-11-22T13:38:15.162Z,24.17
2018-11-22T13:41:18.217Z,25.53
2018-11-22T13:44:21.859Z,26.17
2018-11-22T13:47:25.015Z,27.50
2018-11-22T13:50:29.478Z,27.70
2018-11-22T13:53:32.538Z,26.17
2018-11-22T13:56:35.998Z,26.80
2018-11-22T13:59:39.126Z,27.50
2018-11-22T14:02:42.253Z,26.60
2018-11-22T14:05:45.315Z,28.27
2018-11-22T14:08:48.339Z,27.63
2018-11-22T14:11:51.394Z,28.20
2018-11-22T14:14:54.522Z,26.53
2018-11-22T14:17:59.114Z,26.90
2018-11-22T14:21:02.347Z,33.00
2018-11-22T14:24:05.512Z,27.77
2018-11-22T14:27:08.682Z,28.37
2018-11-22T14:30:14.478Z,28.20
2018-11-22T14:33:17.578Z,27.03
2018-11-22T14:36:20.647Z,25.73
2018-11-22T14:39:23.767Z,27.93
2018-11-22T14:42:26.826Z,27.13
2018-11-22T14:45:30.582Z,28.97
2018-11-22T14:48:33.626Z,27.30
2018-11-22T14:51:39.754Z,28.47
2018-11-22T14:54:42.782Z,27.37
2018-11-22T14:57:45.866Z,28.13
2018-11-22T15:00:48.866Z,28.40
2018-11-22T15:03:51.887Z,27.40
2018-11-22T15:06:54.945Z,26.03
2018-11-22T15:09:58.382Z,23.17
2018-11-22T15:13:01.439Z,27.87
2018-11-22T15:16:04.978Z,27.97
2018-11-22T15:19:08.039Z,27.40
2018-11-22T15:22:11.279Z,28.67
2018-11-22T15:25:15.690Z,28.13
2018-11-22T15:28:19.291Z,28.53
2018-11-22T15:31:22.350Z,26.03
2018-11-22T15:34:25.474Z,24.90
2018-11-22T15:37:28.547Z,26.50
2018-11-22T15:40:31.628Z,26.13
2018-11-22T15:43:34.618Z,27.63
2018-11-22T15:46:37.851Z,27.17
2018-11-22T15:49:41.014Z,27.97
2018-11-22T15:52:44.318Z,25.70
2018-11-22T15:55:47.298Z,26.90
2018-11-22T15:58:50.387Z,28.03
2018-11-22T16:01:53.489Z,27.83
2018-11-22T16:04:56.607Z,27.20
2018-11-22T16:07:59.687Z,28.00
2018-11-22T16:11:02.786Z,30.20
2018-11-22T16:14:06.175Z,27.83
2018-11-22T16:17:09.418Z,28.07
2018-11-22T16:20:12.573Z,28.37
2018-11-22T16:23:15.671Z,27.83
2018-11-22T16:26:18.743Z,30.50
2018-11-22T16:29:22.055Z,29.33
2018-11-22T16:32:25.118Z,29.03
2018-11-22T16:35:33.240Z,27.83
2018-11-22T16:38:32.292Z,28.60
2018-11-22T16:41:34.995Z,38.40
2018-11-22T16:44:38.140Z,59.93
2018-11-22T16:47:41.191Z,34.73
2018-11-22T16:50:44.453Z,34.60
2018-11-22T16:53:47.479Z,28.77
2018-11-22T16:56:50.808Z,29.87
2018-11-22T16:59:53.980Z,28.30
2018-11-22T17:02:59.554Z,30.47
2018-11-22T17:06:02.721Z,27.50
2018-11-22T17:09:08.197Z,28.97
2018-11-22T17:12:11.259Z,28.57
2018-11-22T17:15:16.681Z,32.13
2018-11-22T17:18:19.677Z,29.40
2018-11-22T17:21:22.813Z,30.40
2018-11-22T17:24:25.880Z,30.47
2018-11-22T17:27:29.104Z,30.03
2018-11-22T17:30:34.675Z,31.60
2018-11-22T17:33:38.060Z,29.90
2018-11-22T17:36:41.107Z,31.10
2018-11-22T17:39:44.336Z,30.07
2018-11-22T17:42:47.400Z,27.53
2018-11-22T17:46:15.310Z,30.00
2018-11-22T17:49:18.464Z,29.67
2018-11-22T17:52:21.792Z,27.73
2018-11-22T17:55:26.008Z,26.73
2018-11-22T17:58:29.182Z,29.17
2018-11-22T18:01:32.276Z,27.70
2018-11-22T18:04:35.588Z,26.70
2018-11-22T18:07:38.894Z,28.37
2018-11-22T18:10:42.396Z,28.87
2018-11-22T18:13:45.551Z,28.83
2018-11-22T18:16:49.115Z,29.00
2018-11-22T18:19:52.152Z,27.50
2018-11-22T18:22:56.227Z,28.40
2018-11-22T18:25:59.387Z,28.23
2018-11-22T18:29:02.643Z,27.03
2018-11-22T18:32:06.265Z,28.17
2018-11-22T18:35:11.127Z,26.07
2018-11-22T18:38:14.226Z,28.60
2018-11-22T18:41:18.718Z,28.10
2018-11-22T18:44:21.831Z,28.73
2018-11-22T18:47:25.008Z,28.93
2018-11-22T18:50:28.909Z,28.77
2018-11-22T18:53:31.900Z,29.80
2018-11-22T18:56:37.160Z,29.77
2018-11-22T18:59:38.949Z,27.87
2018-11-22T19:02:42.095Z,29.50
2018-11-22T19:05:45.695Z,28.80
2018-11-22T19:08:49.407Z,28.53
2018-11-22T19:11:52.432Z,29.60
2018-11-22T19:14:55.494Z,29.70
2018-11-22T19:17:59.408Z,30.70
2018-11-22T19:21:03.108Z,31.30
2018-11-22T19:24:06.199Z,35.33
2018-11-22T19:27:09.776Z,28.63
2018-11-22T19:30:15.175Z,32.00
2018-11-22T19:33:19.227Z,32.47
2018-11-22T19:36:22.258Z,31.80
2018-11-22T19:39:25.244Z,39.07
2018-11-22T19:42:28.232Z,33.80
2018-11-22T19:45:32.792Z,35.30
2018-11-22T19:48:36.199Z,33.07
2018-11-22T19:51:39.458Z,33.73
2018-11-22T19:54:43.133Z,33.00
2018-11-22T19:57:47.511Z,32.03
2018-11-22T20:00:50.587Z,32.33
2018-11-22T20:03:53.775Z,32.77
2018-11-22T20:06:56.749Z,34.27
2018-11-22T20:09:59.754Z,35.33
2018-11-22T20:13:03.388Z,34.03
2018-11-22T20:16:06.618Z,31.77
2018-11-22T20:19:09.660Z,33.30
2018-11-22T20:22:12.843Z,33.20
2018-11-22T20:25:15.828Z,31.50
2018-11-22T20:28:18.815Z,30.93
2018-11-22T20:31:21.917Z,31.17
2018-11-22T20:34:24.999Z,31.90
2018-11-22T20:37:27.989Z,33.57
2018-11-22T20:40:30.984Z,31.80
2018-11-22T20:43:34.004Z,29.93
2018-11-22T20:46:37.470Z,32.10
2018-11-22T20:49:40.467Z,31.03
2018-11-22T20:52:43.555Z,30.40
2018-11-22T20:55:46.647Z,30.53
2018-11-22T20:58:49.755Z,32.20
2018-11-22T21:01:52.869Z,33.27
2018-11-22T21:04:56.051Z,30.67
2018-11-22T21:07:59.646Z,33.73
2018-11-22T21:11:03.275Z,32.23
2018-11-22T21:14:07.352Z,34.10
2018-11-22T21:17:10.812Z,32.93
2018-11-22T21:20:15.706Z,34.37
2018-11-22T21:23:18.759Z,34.73
2018-11-22T21:26:21.768Z,32.73
2018-11-22T21:29:24.844Z,35.00
2018-11-22T21:32:27.882Z,33.27
2018-11-22T21:35:31.351Z,33.63
2018-11-22T21:38:34.339Z,33.77
2018-11-22T21:41:37.431Z,31.83
2018-11-22T21:44:40.730Z,32.90
2018-11-22T21:47:43.719Z,34.27
2018-11-22T21:50:46.706Z,35.37
2018-11-22T21:53:49.704Z,33.90
2018-11-22T21:56:52.895Z,33.53
2018-11-22T21:59:56.003Z,34.17
2018-11-22T22:03:00.748Z,35.63
2018-11-22T22:06:03.811Z,34.83
2018-11-22T22:09:07.799Z,36.03
2018-11-22T22:12:11.423Z,34.77
2018-11-22T22:15:15.885Z,32.83
2018-11-22T22:18:21.322Z,35.30
2018-11-22T22:21:22.139Z,33.27
2018-11-22T22:24:25.705Z,36.23
2018-11-22T22:27:30.222Z,36.90
2018-11-22T22:30:33.933Z,34.93
2018-11-22T22:33:36.996Z,36.90
2018-11-22T22:36:40.579Z,36.90
2018-11-22T22:39:44.919Z,37.87
2018-11-22T22:42:48.751Z,38.63
2018-11-22T22:45:52.378Z,38.63
2018-11-22T22:48:56.058Z,36.93
2018-11-22T22:52:00.295Z,35.20
2018-11-22T22:55:03.998Z,34.07
2018-11-22T22:58:07.788Z,38.27
2018-11-22T23:01:11.282Z,36.27
2018-11-22T23:04:14.309Z,37.70
2018-11-22T23:07:17.910Z,36.37
2018-11-22T23:10:21.418Z,35.77
2018-11-22T23:13:24.906Z,35.83
2018-11-22T23:16:28.591Z,32.30
2018-11-22T23:19:32.556Z,29.90
2018-11-22T23:22:37.133Z,33.67
2018-11-22T23:25:41.281Z,33.73
2018-11-22T23:28:46.038Z,35.30
2018-11-22T23:31:50.086Z,32.87
2018-11-22T23:34:54.246Z,31.77
2018-11-22T23:37:58.286Z,34.20
2018-11-22T23:41:01.924Z,31.87
2018-11-22T23:44:05.866Z,31.53
2018-11-22T23:47:09.379Z,31.90
2018-11-22T23:50:19.325Z,30.73
2018-11-22T23:53:22.286Z,31.33
2018-11-22T23:56:25.875Z,30.67
2018-11-22T23:59:30.246Z,32.07
